createdAt,value
2018-06-25T00:02:28.763Z,99.90
2018-06-25T00:04:58.181Z,99.90
2018-06-25T00:07:27.080Z,99.90
2018-06-25T00:09:55.788Z,99.90
2018-06-25T00:12:24.926Z,99.90
2018-06-25T00:14:53.557Z,99.90
2018-06-25T00:17:22.255Z,99.90
2018-06-25T00:19:50.910Z,99.90
2018-06-25T00:22:19.621Z,99.90
2018-06-25T00:24:48.280Z,99.90
2018-06-25T00:27:16.918Z,99.90
2018-06-25T00:29:46.204Z,99.90
2018-06-25T00:32:15.310Z,99.90
2018-06-25T00:34:44.510Z,99.90
2018-06-25T00:37:13.117Z,99.90
2018-06-25T00:39:41.730Z,99.90
2018-06-25T00:42:10.419Z,99.90
2018-06-25T00:44:39.616Z,99.90
2018-06-25T00:47:08.471Z,99.90
2018-06-25T00:49:37.062Z,99.90
2018-06-25T00:52:06.001Z,99.90
2018-06-25T00:54:34.535Z,99.90
2018-06-25T00:57:03.524Z,99.90
2018-06-25T00:59:43.948Z,99.90
2018-06-25T01:02:13.956Z,99.90
2018-06-25T01:04:42.729Z,99.90
2018-06-25T01:07:11.357Z,99.90
2018-06-25T01:09:39.931Z,99.90
2018-06-25T01:12:08.546Z,99.90
2018-06-25T01:14:37.154Z,99.90
2018-06-25T01:17:06.500Z,99.90
2018-06-25T01:19:35.113Z,99.90
2018-06-25T01:22:03.759Z,99.90
2018-06-25T01:24:32.548Z,99.90
2018-06-25T01:27:01.248Z,99.90
2018-06-25T01:29:29.856Z,99.90
2018-06-25T01:31:58.432Z,99.90
2018-06-25T01:34:27.432Z,99.90
2018-06-25T01:36:56.118Z,99.90
2018-06-25T01:39:25.485Z,99.90
2018-06-25T01:41:54.194Z,99.90
2018-06-25T01:44:22.789Z,99.90
2018-06-25T01:46:51.579Z,99.90
2018-06-25T01:49:20.576Z,99.90
2018-06-25T01:51:49.222Z,99.90
2018-06-25T01:54:18.761Z,99.90
2018-06-25T01:56:47.395Z,99.90
2018-06-25T01:59:16.160Z,99.90
2018-06-25T02:01:46.829Z,99.90
2018-06-25T02:04:16.373Z,99.90
2018-06-25T02:06:45.033Z,99.90
2018-06-25T02:09:13.709Z,99.90
2018-06-25T02:11:42.393Z,99.90
2018-06-25T02:14:11.003Z,99.90
2018-06-25T02:16:39.687Z,99.90
2018-06-25T02:19:08.501Z,99.90
2018-06-25T02:21:37.158Z,99.90
2018-06-25T02:24:05.867Z,99.90
2018-06-25T02:26:34.617Z,99.90
2018-06-25T02:29:03.444Z,99.90
2018-06-25T02:31:32.505Z,99.90
2018-06-25T02:34:01.183Z,99.90
2018-06-25T02:36:29.794Z,99.90
2018-06-25T02:38:58.448Z,99.90
2018-06-25T02:41:27.080Z,99.90
2018-06-25T02:43:55.805Z,99.90
2018-06-25T02:48:52.806Z,99.90
2018-06-25T02:51:21.372Z,99.90
2018-06-25T02:53:49.954Z,99.90
2018-06-25T02:56:18.898Z,99.90
2018-06-25T02:58:47.502Z,99.90
2018-06-25T03:01:17.677Z,99.90
2018-06-25T03:03:46.728Z,99.90
2018-06-25T03:06:15.712Z,99.90
2018-06-25T03:08:44.480Z,99.90
2018-06-25T03:11:13.382Z,99.90
2018-06-25T03:13:42.020Z,99.90
2018-06-25T03:16:11.682Z,99.90
2018-06-25T03:18:40.323Z,99.90
2018-06-25T03:21:09.025Z,99.90
2018-06-25T03:23:37.770Z,99.90
2018-06-25T03:26:06.391Z,99.90
2018-06-25T03:28:35.137Z,99.90
2018-06-25T03:31:04.720Z,99.90
2018-06-25T03:36:02.192Z,99.90
2018-06-25T03:38:31.797Z,99.90
2018-06-25T03:41:00.343Z,99.90
2018-06-25T03:43:28.921Z,99.90
2018-06-25T03:45:57.802Z,99.90
2018-06-25T03:48:26.492Z,99.90
2018-06-25T03:50:56.475Z,99.90
2018-06-25T03:53:25.065Z,99.90
2018-06-25T03:55:54.005Z,99.90
2018-06-25T03:58:22.653Z,99.90
2018-06-25T04:00:51.242Z,99.90
2018-06-25T04:03:20.079Z,99.90
2018-06-25T04:05:48.742Z,99.90
2018-06-25T04:08:17.701Z,99.90
2018-06-25T04:10:46.355Z,99.90
2018-06-25T04:13:15.048Z,99.90
2018-06-25T04:15:43.723Z,99.90
2018-06-25T04:18:12.496Z,99.90
2018-06-25T04:20:41.203Z,99.90
2018-06-25T04:23:10.254Z,99.90
2018-06-25T04:25:38.885Z,99.90
2018-06-25T04:28:11.177Z,99.90
2018-06-25T04:30:39.874Z,99.90
2018-06-25T04:35:36.803Z,99.90
2018-06-25T04:38:05.481Z,99.90
2018-06-25T04:40:34.086Z,99.90
2018-06-25T04:43:02.768Z,99.90
2018-06-25T04:45:31.457Z,99.90
2018-06-25T04:48:00.107Z,99.90
2018-06-25T04:50:28.783Z,99.90
2018-06-25T04:52:57.487Z,99.90
2018-06-25T04:55:26.490Z,99.90
2018-06-25T04:57:55.303Z,99.90
2018-06-25T05:00:23.861Z,99.90
2018-06-25T05:02:53.007Z,99.90
2018-06-25T05:05:21.635Z,99.90
2018-06-25T05:07:51.167Z,99.90
2018-06-25T05:10:19.727Z,99.90
2018-06-25T05:12:48.768Z,99.90
2018-06-25T05:15:18.519Z,99.90
2018-06-25T05:17:47.227Z,99.90
2018-06-25T05:20:15.869Z,99.90
2018-06-25T05:22:44.675Z,99.90
2018-06-25T05:25:13.551Z,99.90
2018-06-25T05:27:42.238Z,99.90
2018-06-25T05:30:10.823Z,99.90
2018-06-25T05:32:39.783Z,99.90
2018-06-25T05:35:08.499Z,99.90
2018-06-25T05:37:37.317Z,99.90
2018-06-25T05:40:06.168Z,99.90
2018-06-25T05:42:34.835Z,99.90
2018-06-25T05:45:03.538Z,99.90
2018-06-25T05:47:32.186Z,99.90
2018-06-25T05:50:00.808Z,99.90
2018-06-25T05:52:29.439Z,99.90
2018-06-25T05:54:58.631Z,99.90
2018-06-25T05:57:27.284Z,99.90
2018-06-25T05:59:55.892Z,99.90
2018-06-25T06:02:24.460Z,99.90
2018-06-25T06:04:53.084Z,99.90
2018-06-25T06:07:22.226Z,99.90
2018-06-25T06:09:51.088Z,99.90
2018-06-25T06:12:19.763Z,99.90
2018-06-25T06:14:48.573Z,99.90
2018-06-25T06:17:17.886Z,99.90
2018-06-25T06:19:46.528Z,99.90
2018-06-25T06:22:15.139Z,99.90
2018-06-25T06:24:43.826Z,99.90
2018-06-25T06:27:12.800Z,99.90
2018-06-25T06:29:41.404Z,99.90
2018-06-25T06:32:10.095Z,99.90
2018-06-25T06:34:38.673Z,99.90
2018-06-25T06:37:07.513Z,99.90
2018-06-25T06:39:36.464Z,99.90
2018-06-25T06:42:05.409Z,99.90
2018-06-25T06:44:34.261Z,99.90
2018-06-25T06:47:02.851Z,99.90
2018-06-25T06:49:31.466Z,99.90
2018-06-25T06:52:00.982Z,99.90
2018-06-25T06:54:29.684Z,99.90
2018-06-25T06:56:58.699Z,99.90
2018-06-25T06:59:27.863Z,99.90
2018-06-25T07:01:56.849Z,99.90
2018-06-25T07:04:25.457Z,99.90
2018-06-25T07:06:54.066Z,99.90
2018-06-25T07:09:22.703Z,99.90
2018-06-25T07:11:52.440Z,99.90
2018-06-25T07:14:21.045Z,99.90
2018-06-25T07:16:50.787Z,99.90
2018-06-25T07:19:19.428Z,99.90
2018-06-25T07:21:48.401Z,99.90
2018-06-25T07:24:17.422Z,99.90
2018-06-25T07:26:46.004Z,99.90
2018-06-25T07:29:14.720Z,99.90
2018-06-25T07:31:43.339Z,99.90
2018-06-25T07:34:12.039Z,99.90
2018-06-25T07:36:40.665Z,99.90
2018-06-25T07:39:10.160Z,99.90
2018-06-25T07:41:38.953Z,99.90
2018-06-25T07:44:07.756Z,99.90
2018-06-25T07:46:36.376Z,99.90
2018-06-25T07:49:05.091Z,99.90
2018-06-25T07:51:33.707Z,99.90
2018-06-25T07:54:03.024Z,99.90
2018-06-25T07:56:31.918Z,99.90
2018-06-25T07:59:00.550Z,99.90
2018-06-25T08:01:29.189Z,99.90
2018-06-25T08:03:57.894Z,99.90
2018-06-25T08:06:26.520Z,99.90
2018-06-25T08:08:55.089Z,99.90
2018-06-25T08:11:24.444Z,99.90
2018-06-25T08:13:53.044Z,99.90
2018-06-25T08:16:21.669Z,99.90
2018-06-25T08:18:50.573Z,99.90
2018-06-25T08:21:19.140Z,99.90
2018-06-25T08:23:47.686Z,99.90
2018-06-25T08:26:16.369Z,99.90
2018-06-25T08:28:45.732Z,99.90
2018-06-25T08:31:14.358Z,99.90
2018-06-25T08:33:43.514Z,99.90
2018-06-25T08:36:12.302Z,99.90
2018-06-25T08:38:41.442Z,99.90
2018-06-25T08:41:10.052Z,99.90
2018-06-25T08:43:38.675Z,99.90
2018-06-25T08:46:07.281Z,99.90
2018-06-25T08:48:36.209Z,99.90
2018-06-25T08:51:04.846Z,99.90
2018-06-25T08:53:33.433Z,99.90
2018-06-25T08:56:02.055Z,99.90
2018-06-25T08:58:30.647Z,99.90
2018-06-25T09:00:59.503Z,99.90
2018-06-25T09:03:28.497Z,99.90
2018-06-25T09:05:57.176Z,99.90
2018-06-25T09:08:25.761Z,99.90
2018-06-25T09:11:14.039Z,99.90
2018-06-25T09:13:42.863Z,99.90
2018-06-25T09:16:11.694Z,99.90
2018-06-25T09:18:40.611Z,99.90
2018-06-25T09:21:09.289Z,99.90
2018-06-25T09:23:38.187Z,99.90
2018-06-25T09:26:06.897Z,99.90
2018-06-25T09:28:35.795Z,99.90
2018-06-25T09:31:04.522Z,99.90
2018-06-25T09:33:33.256Z,99.90
2018-06-25T09:36:01.977Z,99.90
2018-06-25T09:38:30.655Z,99.90
2018-06-25T09:40:59.348Z,99.90
2018-06-25T09:43:27.989Z,99.90
2018-06-25T09:45:56.714Z,99.90
2018-06-25T09:48:25.314Z,99.90
2018-06-25T09:50:53.987Z,99.90
2018-06-25T09:53:22.601Z,99.90
2018-06-25T09:55:51.277Z,99.90
2018-06-25T09:58:20.065Z,99.90
2018-06-25T10:00:54.153Z,99.90
2018-06-25T10:03:22.891Z,99.90
2018-06-25T10:05:51.584Z,99.90
2018-06-25T10:08:20.372Z,99.90
2018-06-25T10:10:49.119Z,99.90
2018-06-25T10:13:18.025Z,99.90
2018-06-25T10:15:46.833Z,99.90
2018-06-25T10:18:15.687Z,99.90
2018-06-25T10:20:44.301Z,99.90
2018-06-25T10:23:12.947Z,99.90
2018-06-25T10:25:41.840Z,99.90
2018-06-25T10:28:10.628Z,99.90
2018-06-25T10:30:39.425Z,99.90
2018-06-25T10:33:08.043Z,99.90
2018-06-25T10:35:36.795Z,99.90
2018-06-25T10:38:05.621Z,99.90
2018-06-25T10:40:34.416Z,99.90
2018-06-25T10:43:03.235Z,99.90
2018-06-25T10:45:31.825Z,99.90
2018-06-25T10:48:01.765Z,99.90
2018-06-25T10:50:30.435Z,99.90
2018-06-25T10:52:59.400Z,99.90
2018-06-25T10:55:28.975Z,99.90
2018-06-25T10:57:57.661Z,99.90
2018-06-25T11:00:26.379Z,99.90
2018-06-25T11:02:55.009Z,99.90
2018-06-25T11:05:23.611Z,99.90
2018-06-25T11:07:52.974Z,99.90
2018-06-25T11:10:21.706Z,99.90
2018-06-25T11:12:50.422Z,99.90
2018-06-25T11:15:19.098Z,99.90
2018-06-25T11:17:47.746Z,99.90
2018-06-25T11:20:17.200Z,99.90
2018-06-25T11:22:46.036Z,99.90
2018-06-25T11:25:14.650Z,99.90
2018-06-25T11:27:43.282Z,99.90
2018-06-25T11:30:11.938Z,99.90
2018-06-25T11:32:40.568Z,99.90
2018-06-25T11:35:09.876Z,99.90
2018-06-25T11:37:38.758Z,99.90
2018-06-25T11:40:07.529Z,99.90
2018-06-25T11:42:36.278Z,99.90
2018-06-25T11:45:05.294Z,99.90
2018-06-25T11:47:34.069Z,99.90
2018-06-25T11:50:07.374Z,99.90
2018-06-25T11:52:36.462Z,99.90
2018-06-25T11:55:05.331Z,99.90
2018-06-25T11:57:33.986Z,99.90
2018-06-25T12:00:02.938Z,99.90
2018-06-25T12:02:32.039Z,99.90
2018-06-25T12:05:00.597Z,99.90
2018-06-25T12:07:29.290Z,99.90
2018-06-25T12:09:58.057Z,99.90
2018-06-25T12:12:27.885Z,99.90
2018-06-25T12:14:57.010Z,99.90
2018-06-25T12:17:29.640Z,99.90
2018-06-25T12:19:58.495Z,99.90
2018-06-25T12:22:27.107Z,99.90
2018-06-25T12:24:56.620Z,99.90
2018-06-25T12:27:25.537Z,99.90
2018-06-25T12:29:54.301Z,99.90
2018-06-25T12:32:23.108Z,99.90
2018-06-25T12:34:51.944Z,99.90
2018-06-25T12:37:20.584Z,99.90
2018-06-25T12:39:49.725Z,99.90
2018-06-25T12:42:18.448Z,99.90
2018-06-25T12:44:47.255Z,99.90
2018-06-25T12:47:16.862Z,99.90
2018-06-25T12:49:45.705Z,99.90
2018-06-25T12:52:14.381Z,99.90
2018-06-25T12:54:43.153Z,99.90
2018-06-25T12:57:11.953Z,99.90
2018-06-25T12:59:40.849Z,99.90
2018-06-25T13:02:10.617Z,99.90
2018-06-25T13:04:39.499Z,99.90
2018-06-25T13:07:08.373Z,99.90
2018-06-25T13:09:37.065Z,99.90
2018-06-25T13:12:05.931Z,99.90
2018-06-25T13:14:35.245Z,99.90
2018-06-25T13:17:04.320Z,99.90
2018-06-25T13:19:33.522Z,99.90
2018-06-25T13:22:02.328Z,99.90
2018-06-25T13:24:31.332Z,99.90
2018-06-25T13:27:00.725Z,99.90
2018-06-25T13:29:29.621Z,99.90
2018-06-25T13:31:59.422Z,99.90
2018-06-25T13:34:28.537Z,99.60
2018-06-25T13:36:57.813Z,99.80
2018-06-25T13:39:27.604Z,98.20
2018-06-25T13:41:56.683Z,99.90
2018-06-25T13:44:25.446Z,99.90
2018-06-25T13:46:54.544Z,99.80
2018-06-25T13:49:23.418Z,99.50
2018-06-25T13:51:52.323Z,99.90
2018-06-25T13:54:21.168Z,99.90
2018-06-25T13:56:50.019Z,99.10
2018-06-25T13:59:19.061Z,99.90
2018-06-25T14:01:47.969Z,99.90
2018-06-25T14:04:17.779Z,99.90
2018-06-25T14:06:47.069Z,99.90
2018-06-25T14:09:16.044Z,99.90
2018-06-25T14:11:44.952Z,98.90
2018-06-25T14:14:13.934Z,98.80
2018-06-25T14:16:43.011Z,99.50
2018-06-25T14:19:11.851Z,99.90
2018-06-25T14:21:40.771Z,99.90
2018-06-25T14:24:14.776Z,99.90
2018-06-25T14:26:45.059Z,98.80
2018-06-25T14:29:19.065Z,99.90
2018-06-25T14:31:48.472Z,99.30
2018-06-25T14:35:06.325Z,99.20
2018-06-25T14:37:34.991Z,99.40
2018-06-25T14:40:03.968Z,98.00
2018-06-25T14:42:32.664Z,99.40
2018-06-25T14:45:01.328Z,99.60
2018-06-25T14:47:30.020Z,97.70
2018-06-25T14:49:59.942Z,99.50
2018-06-25T14:52:28.970Z,98.40
2018-06-25T14:54:57.650Z,99.70
2018-06-25T14:57:26.771Z,97.50
2018-06-25T14:59:55.419Z,98.10
2018-06-25T15:02:24.235Z,98.80
2018-06-25T15:04:52.901Z,99.10
2018-06-25T15:07:21.537Z,98.30
2018-06-25T15:09:50.500Z,98.90
2018-06-25T15:12:19.189Z,98.20
2018-06-25T15:14:48.941Z,98.20
2018-06-25T15:17:17.675Z,98.40
2018-06-25T15:19:46.306Z,98.90
2018-06-25T15:22:15.093Z,98.90
2018-06-25T15:24:43.658Z,98.80
2018-06-25T15:27:12.437Z,99.50
2018-06-25T15:29:42.038Z,99.40
2018-06-25T15:32:11.219Z,99.30
2018-06-25T15:34:39.893Z,99.90
2018-06-25T15:37:08.717Z,99.30
2018-06-25T15:39:37.911Z,99.90
2018-06-25T15:42:07.141Z,99.90
2018-06-25T15:44:36.477Z,99.90
2018-06-25T15:47:05.129Z,99.90
2018-06-25T15:49:33.882Z,99.90
2018-06-25T15:52:05.738Z,99.90
2018-06-25T15:54:34.607Z,99.90
2018-06-25T15:57:03.482Z,99.90
2018-06-25T15:59:32.158Z,99.90
2018-06-25T16:02:00.944Z,99.90
2018-06-25T16:04:29.511Z,99.90
2018-06-25T16:06:58.470Z,99.90
2018-06-25T16:09:27.594Z,99.90
2018-06-25T16:11:56.702Z,99.90
2018-06-25T16:14:25.832Z,99.90
2018-06-25T16:16:54.798Z,99.90
2018-06-25T16:19:23.459Z,99.90
2018-06-25T16:21:52.186Z,99.90
2018-06-25T16:24:20.943Z,99.90
2018-06-25T16:26:49.659Z,99.90
2018-06-25T16:29:19.197Z,99.90
2018-06-25T16:31:48.248Z,99.90
2018-06-25T16:34:16.858Z,99.90
2018-06-25T16:36:48.241Z,99.90
2018-06-25T16:39:18.195Z,99.90
2018-06-25T16:41:47.427Z,99.90
2018-06-25T16:44:16.121Z,99.90
2018-06-25T16:46:45.789Z,99.90
2018-06-25T16:49:14.580Z,99.90
2018-06-25T16:51:43.676Z,99.90
2018-06-25T16:54:12.546Z,99.90
2018-06-25T16:56:41.395Z,99.90
2018-06-25T16:59:10.687Z,99.90
2018-06-25T17:01:39.663Z,99.90
2018-06-25T17:04:08.285Z,99.90
2018-06-25T17:06:37.994Z,99.90
2018-06-25T17:09:10.373Z,99.90
2018-06-25T17:11:39.264Z,99.90
2018-06-25T17:14:07.906Z,99.90
2018-06-25T17:16:36.596Z,99.90
2018-06-25T17:19:05.621Z,99.90
2018-06-25T17:21:34.313Z,99.90
2018-06-25T17:24:02.908Z,99.90
2018-06-25T17:26:31.901Z,99.90
2018-06-25T17:29:00.504Z,99.90
2018-06-25T17:31:29.079Z,99.90
2018-06-25T17:33:57.967Z,99.90
2018-06-25T17:36:26.530Z,99.90
2018-06-25T17:38:55.891Z,99.90
2018-06-25T17:41:24.508Z,99.90
2018-06-25T17:43:53.016Z,99.90
2018-06-25T17:46:21.634Z,99.90
2018-06-25T17:48:50.237Z,99.90
2018-06-25T17:51:18.835Z,99.90
2018-06-25T17:53:47.458Z,99.90
2018-06-25T17:56:15.991Z,99.90
2018-06-25T17:58:44.595Z,99.90
2018-06-25T18:01:13.155Z,99.90
2018-06-25T18:03:41.711Z,99.90
2018-06-25T18:06:10.265Z,99.90
2018-06-25T18:08:38.841Z,99.90
2018-06-25T18:11:07.410Z,99.90
2018-06-25T18:13:35.993Z,99.90
2018-06-25T18:16:13.136Z,99.90
2018-06-25T18:18:41.777Z,99.90
2018-06-25T18:21:10.857Z,99.90
2018-06-25T18:23:39.849Z,99.90
2018-06-25T18:26:09.288Z,99.90
2018-06-25T18:28:39.599Z,99.90
2018-06-25T18:31:09.189Z,99.90
2018-06-25T18:33:38.518Z,99.90
2018-06-25T18:36:07.327Z,99.90
2018-06-25T18:38:36.746Z,99.90
2018-06-25T18:41:05.822Z,99.90
2018-06-25T18:43:35.381Z,99.90
2018-06-25T18:46:05.412Z,99.90
2018-06-25T18:48:35.987Z,99.90
2018-06-25T18:51:04.742Z,99.90
2018-06-25T18:53:34.554Z,99.90
2018-06-25T18:56:05.472Z,99.90
2018-06-25T18:58:34.288Z,99.90
2018-06-25T19:01:02.979Z,99.90
2018-06-25T19:03:36.764Z,99.90
2018-06-25T19:06:08.829Z,99.90
2018-06-25T19:08:40.134Z,99.90
2018-06-25T19:11:11.386Z,99.90
2018-06-25T19:13:40.588Z,99.90
2018-06-25T19:16:10.436Z,99.90
2018-06-25T19:18:40.449Z,99.90
2018-06-25T19:21:09.274Z,99.90
2018-06-25T19:23:40.990Z,99.90
2018-06-25T19:26:10.818Z,99.90
2018-06-25T19:28:40.658Z,99.90
2018-06-25T19:31:10.448Z,99.90
2018-06-25T19:33:40.389Z,99.90
2018-06-25T19:36:09.940Z,99.90
2018-06-25T19:38:38.908Z,99.90
2018-06-25T19:41:08.060Z,99.90
2018-06-25T19:43:37.247Z,99.90
2018-06-25T19:46:06.366Z,99.90
2018-06-25T19:48:35.788Z,99.90
2018-06-25T19:51:05.080Z,99.90
2018-06-25T19:53:34.307Z,99.90
2018-06-25T19:56:04.759Z,99.90
2018-06-25T19:58:33.383Z,99.90
2018-06-25T20:01:01.983Z,99.90
2018-06-25T20:03:30.538Z,99.90
2018-06-25T20:05:59.611Z,99.90
2018-06-25T20:08:28.300Z,99.90
2018-06-25T20:10:57.093Z,99.90
2018-06-25T20:13:25.835Z,99.90
2018-06-25T20:15:54.453Z,99.90
2018-06-25T20:18:23.042Z,99.90
2018-06-25T20:20:51.604Z,99.90
2018-06-25T20:23:20.155Z,99.90
2018-06-25T20:25:48.744Z,99.90
2018-06-25T20:28:17.295Z,99.90
2018-06-25T20:30:45.826Z,99.90
2018-06-25T20:33:14.469Z,99.90
2018-06-25T20:35:43.069Z,99.90
2018-06-25T20:38:12.446Z,99.90
2018-06-25T20:40:41.024Z,99.90
2018-06-25T20:43:09.689Z,99.90
2018-06-25T20:45:38.732Z,99.90
2018-06-25T20:48:07.603Z,99.90
2018-06-25T20:50:36.230Z,99.90
2018-06-25T20:53:04.815Z,99.90
2018-06-25T20:55:33.397Z,99.90
2018-06-25T20:58:01.953Z,99.90
2018-06-25T21:00:30.614Z,99.90
2018-06-25T21:02:59.540Z,99.90
2018-06-25T21:05:28.487Z,99.90
2018-06-25T21:07:57.104Z,99.90
2018-06-25T21:10:25.810Z,99.90
2018-06-25T21:12:54.491Z,99.90
2018-06-25T21:15:23.929Z,99.90
2018-06-25T21:17:53.699Z,99.90
2018-06-25T21:20:23.339Z,99.90
2018-06-25T21:22:52.049Z,99.90
2018-06-25T21:25:20.681Z,99.90
2018-06-25T21:27:49.621Z,99.90
2018-06-25T21:30:18.914Z,99.90
2018-06-25T21:32:47.524Z,99.90
2018-06-25T21:35:16.889Z,99.90
2018-06-25T21:37:45.600Z,99.90
2018-06-25T21:40:14.227Z,99.90
2018-06-25T21:42:43.729Z,99.90
2018-06-25T21:45:12.644Z,99.90
2018-06-25T21:47:42.328Z,99.90
2018-06-25T21:50:10.947Z,99.90
2018-06-25T21:52:39.576Z,99.90
2018-06-25T21:55:08.172Z,99.90
2018-06-25T21:57:37.177Z,99.90
2018-06-25T22:00:10.536Z,99.90
2018-06-25T22:02:39.823Z,99.90
2018-06-25T22:05:09.272Z,99.90
2018-06-25T22:07:38.320Z,99.90
2018-06-25T22:10:07.968Z,99.90
2018-06-25T22:12:36.864Z,99.90
2018-06-25T22:15:06.193Z,99.90
2018-06-25T22:17:35.060Z,99.90
2018-06-25T22:20:04.231Z,99.90
2018-06-25T22:22:33.197Z,99.90
2018-06-25T22:25:02.112Z,99.90
2018-06-25T22:27:30.767Z,99.90
2018-06-25T22:29:59.697Z,99.90
2018-06-25T22:32:28.944Z,99.90
2018-06-25T22:34:57.960Z,99.90
2018-06-25T22:37:26.663Z,99.90
2018-06-25T22:39:55.372Z,99.90
2018-06-25T22:42:24.060Z,99.90
2018-06-25T22:44:52.701Z,99.90
2018-06-25T22:47:21.537Z,99.90
2018-06-25T22:49:50.313Z,99.90
2018-06-25T22:52:18.962Z,99.90
2018-06-25T22:54:47.693Z,99.90
2018-06-25T22:59:45.322Z,99.90
2018-06-25T23:02:14.326Z,99.90
2018-06-25T23:04:42.946Z,99.90
2018-06-25T23:07:11.580Z,99.90
2018-06-25T23:09:40.601Z,99.90
2018-06-25T23:12:09.463Z,99.90
2018-06-25T23:14:38.779Z,99.90
2018-06-25T23:17:08.017Z,99.90
2018-06-25T23:19:36.895Z,99.90
2018-06-25T23:22:05.522Z,99.90
2018-06-25T23:24:34.273Z,99.90
2018-06-25T23:27:02.924Z,99.90
2018-06-25T23:29:31.624Z,99.90
2018-06-25T23:32:00.449Z,99.90
2018-06-25T23:34:29.239Z,99.90
2018-06-25T23:39:26.502Z,99.90
2018-06-25T23:41:55.130Z,99.90
2018-06-25T23:44:23.906Z,99.90
2018-06-25T23:46:52.742Z,99.90
2018-06-25T23:49:21.709Z,99.90
2018-06-25T23:51:50.488Z,99.90
2018-06-25T23:54:19.129Z,99.90
2018-06-25T23:56:47.836Z,99.90
